Time;durP1;ratioP1;P1;durP2;ratioP2;P2;SDS_P1;SDS_P2;PMS_P1;PMS_P2;Temp;Humidity;BMP_temperature;BMP_pressure;BME280_temperature;BME280_humidity;BME280_pressure;Samples;Min_cycle;Max_cycle;Signal;HPM_P1;HPM_P2
2022/09/09 00:00:36;;;;;;;2.92;0.90;;;;;;;;;;5066485;28;20048;-70
2022/09/09 00:03:06;;;;;;;1.70;1.10;;;;;;;;;;5063190;28;20110;-70
2022/09/09 00:05:37;;;;;;;1.10;0.80;;;;;;;;;;5068632;28;20056;-69
2022/09/09 00:08:05;;;;;;;3.20;1.38;;;;;;;;;;5055083;28;20053;-69
2022/09/09 00:10:33;;;;;;;1.85;1.15;;;;;;;;;;5046436;28;20116;-69
2022/09/09 00:13:03;;;;;;;3.50;1.88;;;;;;;;;;5046085;28;20079;-69
2022/09/09 00:15:33;;;;;;;2.08;0.93;;;;;;;;;;5046814;28;20041;-69
2022/09/09 00:18:04;;;;;;;7.75;0.90;;;;;;;;;;5048107;28;20063;-68
2022/09/09 00:20:34;;;;;;;2.55;0.93;;;;;;;;;;5066624;28;20049;-66
2022/09/09 00:23:06;;;;;;;2.83;1.27;;;;;;;;;;5062896;28;20048;-61
2022/09/09 00:25:36;;;;;;;2.03;1.10;;;;;;;;;;5066724;28;20052;-67
2022/09/09 00:28:03;;;;;;;4.05;0.93;;;;;;;;;;5063179;28;20048;-68
2022/09/09 00:30:32;;;;;;;1.35;0.82;;;;;;;;;;5066613;28;20109;-60
2022/09/09 00:33:01;;;;;;;2.53;1.08;;;;;;;;;;5066522;28;20044;-64
2022/09/09 00:35:28;;;;;;;;;;;;;;;;;;5046528;28;20056;-61
2022/09/09 00:38:02;;;;;;;0.70;0.68;;;;;;;;;;5046569;28;20012;-59
2022/09/09 00:40:32;;;;;;;4.70;1.70;;;;;;;;;;5051907;28;20048;-62
2022/09/09 00:43:20;;;;;;;2.53;1.20;;;;;;;;;;5064276;28;20071;-59
2022/09/09 00:46:03;;;;;;;3.17;1.30;;;;;;;;;;5047324;28;20057;-62
2022/09/09 00:48:36;;;;;;;3.38;1.02;;;;;;;;;;5070176;28;20056;-59
2022/09/09 00:51:05;;;;;;;1.95;0.85;;;;;;;;;;5048328;28;20067;-56
2022/09/09 00:53:38;;;;;;;4.57;0.98;;;;;;;;;;5052797;28;20093;-57
2022/09/09 00:56:10;;;;;;;6.50;1.63;;;;;;;;;;5066358;28;20056;-58
2022/09/09 00:58:37;;;;;;;1.85;0.90;;;;;;;;;;5069943;28;20051;-62
2022/09/09 01:01:06;;;;;;;3.65;1.45;;;;;;;;;;5049538;28;20048;-65
2022/09/09 01:03:35;;;;;;;4.10;1.13;;;;;;;;;;5050238;28;20067;-69
2022/09/09 01:06:04;;;;;;;3.28;0.90;;;;;;;;;;5060901;28;20079;-64
2022/09/09 01:08:43;;;;;;;3.75;1.00;;;;;;;;;;5069947;28;20052;-67
2022/09/09 01:11:13;;;;;;;3.20;1.00;;;;;;;;;;5065647;28;20070;-58
2022/09/09 01:13:42;;;;;;;2.40;0.75;;;;;;;;;;5060439;28;20109;-61
2022/09/09 01:16:11;;;;;;;3.58;1.00;;;;;;;;;;5050759;28;20060;-61
2022/09/09 01:18:37;;;;;;;;;;;;;;;;;;5049825;28;20048;-65
2022/09/09 01:21:07;;;;;;;2.90;0.90;;;;;;;;;;5055918;28;19981;-62
2022/09/09 01:23:53;;;;;;;3.85;1.27;;;;;;;;;;5069484;28;20396;-67
2022/09/09 01:26:24;;;;;;;2.33;1.00;;;;;;;;;;5058075;28;20057;-68
2022/09/09 01:28:52;;;;;;;3.40;1.40;;;;;;;;;;5046513;28;20053;-65
2022/09/09 01:31:20;;;;;;;0.75;0.60;;;;;;;;;;5042512;28;20076;-69
2022/09/09 01:33:47;;;;;;;1.10;0.70;;;;;;;;;;5049346;28;20048;-64
2022/09/09 01:36:16;;;;;;;3.08;0.93;;;;;;;;;;5079929;28;20051;-69
2022/09/09 01:38:42;;;;;;;1.33;0.90;;;;;;;;;;5069699;28;20044;-69
2022/09/09 01:41:09;;;;;;;1.65;0.90;;;;;;;;;;5063418;28;20044;-60
2022/09/09 01:43:39;;;;;;;2.17;0.75;;;;;;;;;;5069590;28;20097;-67
2022/09/09 01:46:05;;;;;;;1.70;0.75;;;;;;;;;;5065213;28;20048;-69
2022/09/09 01:48:32;;;;;;;2.08;0.77;;;;;;;;;;5069752;28;20051;-68
2022/09/09 01:50:58;;;;;;;2.80;1.15;;;;;;;;;;5069402;28;20087;-64
2022/09/09 01:53:25;;;;;;;2.53;0.70;;;;;;;;;;5066140;28;20048;-65
2022/09/09 01:55:57;;;;;;;1.17;0.93;;;;;;;;;;5073602;28;20059;-68
2022/09/09 01:58:29;;;;;;;2.50;0.75;;;;;;;;;;5068420;28;20064;-63
2022/09/09 02:01:01;;;;;;;1.58;0.75;;;;;;;;;;5071364;28;20110;-61
2022/09/09 02:03:29;;;;;;;2.40;0.82;;;;;;;;;;5056854;28;20067;-66
2022/09/09 02:06:01;;;;;;;2.13;0.80;;;;;;;;;;5068215;28;20044;-69
2022/09/09 02:08:30;;;;;;;1.77;0.73;;;;;;;;;;5048407;28;20056;-66
2022/09/09 02:10:59;;;;;;;2.15;0.90;;;;;;;;;;5051920;28;20052;-69
2022/09/09 02:13:26;;;;;;;1.75;0.80;;;;;;;;;;5053096;28;20044;-67
2022/09/09 02:15:54;;;;;;;4.63;0.88;;;;;;;;;;5070723;28;20059;-69
2022/09/09 02:18:25;;;;;;;1.40;0.70;;;;;;;;;;5058551;28;20048;-69
2022/09/09 02:20:55;;;;;;;2.72;0.80;;;;;;;;;;5061891;28;20052;-69
2022/09/09 02:23:21;;;;;;;1.27;0.73;;;;;;;;;;5060423;28;20055;-65
2022/09/09 02:25:51;;;;;;;1.23;0.68;;;;;;;;;;5052525;28;20049;-69
2022/09/09 02:28:20;;;;;;;2.17;0.55;;;;;;;;;;5049615;28;20068;-65
2022/09/09 02:30:48;;;;;;;1.52;0.70;;;;;;;;;;5051887;28;20060;-69
2022/09/09 02:33:15;;;;;;;3.35;0.68;;;;;;;;;;5052995;28;20060;-63
2022/09/09 02:35:45;;;;;;;16.75;1.52;;;;;;;;;;5072540;28;20166;-65
2022/09/09 02:38:13;;;;;;;4.20;0.80;;;;;;;;;;5067926;28;20064;-67
2022/09/09 02:40:39;;;;;;;7.47;1.30;;;;;;;;;;5071770;28;20052;-67
2022/09/09 02:43:06;;;;;;;1.48;0.70;;;;;;;;;;5069627;28;20048;-56
2022/09/09 02:45:37;;;;;;;4.07;0.90;;;;;;;;;;5071691;28;20063;-62
2022/09/09 02:48:09;;;;;;;2.05;0.70;;;;;;;;;;5074136;28;20075;-60
2022/09/09 02:50:42;;;;;;;3.53;0.80;;;;;;;;;;5067069;28;20052;-63
2022/09/09 02:53:12;;;;;;;4.35;0.80;;;;;;;;;;5071968;28;20078;-60
2022/09/09 02:55:42;;;;;;;0.93;0.70;;;;;;;;;;5051162;28;20076;-62
2022/09/09 02:58:11;;;;;;;1.35;0.60;;;;;;;;;;5051874;28;20080;-67
2022/09/09 03:00:39;;;;;;;1.23;0.60;;;;;;;;;;5064019;28;20051;-65
2022/09/09 03:03:06;;;;;;;2.03;0.65;;;;;;;;;;5071472;28;20052;-65
2022/09/09 03:05:32;;;;;;;1.90;0.80;;;;;;;;;;5053186;28;20059;-68
2022/09/09 03:07:59;;;;;;;2.00;0.50;;;;;;;;;;5051717;28;20052;-65
2022/09/09 03:10:27;;;;;;;3.28;0.70;;;;;;;;;;5055236;28;20053;-60
2022/09/09 03:12:55;;;;;;;1.58;0.65;;;;;;;;;;5053165;28;20048;-55
2022/09/09 03:15:22;;;;;;;2.10;0.55;;;;;;;;;;5058759;28;20052;-67
2022/09/09 03:17:48;;;;;;;3.25;0.95;;;;;;;;;;5051221;28;20052;-66
2022/09/09 03:20:15;;;;;;;0.63;0.52;;;;;;;;;;5045665;28;20052;-65
2022/09/09 03:22:43;;;;;;;1.73;0.82;;;;;;;;;;5051249;28;20044;-67
2022/09/09 03:25:10;;;;;;;0.70;0.60;;;;;;;;;;5047458;28;20072;-65
2022/09/09 03:27:38;;;;;;;2.08;0.93;;;;;;;;;;5051119;28;20044;-61
2022/09/09 03:30:05;;;;;;;2.13;0.75;;;;;;;;;;5045915;28;20059;-66
2022/09/09 03:32:32;;;;;;;2.17;0.82;;;;;;;;;;5031571;28;20171;-62
2022/09/09 03:34:58;;;;;;;2.95;0.80;;;;;;;;;;5047552;28;20052;-62
2022/09/09 03:37:25;;;;;;;1.40;0.60;;;;;;;;;;5063292;28;20056;-57
2022/09/09 03:39:54;;;;;;;4.32;0.80;;;;;;;;;;5067305;28;20040;-62
2022/09/09 03:42:20;;;;;;;;;;;;;;;;;;5047070;28;20143;-63
2022/09/09 03:44:49;;;;;;;0.90;0.50;;;;;;;;;;5050666;28;19955;-66
2022/09/09 03:47:16;;;;;;;1.35;0.80;;;;;;;;;;5059020;28;20052;-66
2022/09/09 03:49:43;;;;;;;5.38;1.30;;;;;;;;;;5067833;28;20056;-69
2022/09/09 03:52:09;;;;;;;5.07;1.30;;;;;;;;;;5063351;28;20068;-67
2022/09/09 03:54:36;;;;;;;2.53;0.80;;;;;;;;;;5055291;28;20068;-69
2022/09/09 03:57:02;;;;;;;0.73;0.55;;;;;;;;;;5044542;28;20044;-61
2022/09/09 03:59:29;;;;;;;1.10;0.70;;;;;;;;;;5047254;28;20059;-68
2022/09/09 04:01:58;;;;;;;2.58;1.38;;;;;;;;;;5056307;28;20052;-67
2022/09/09 04:04:25;;;;;;;0.90;0.63;;;;;;;;;;5066915;28;20063;-62
2022/09/09 04:06:52;;;;;;;6.90;1.85;;;;;;;;;;5062212;28;20040;-66
2022/09/09 04:09:19;;;;;;;6.90;1.30;;;;;;;;;;5067148;28;20052;-62
2022/09/09 04:11:49;;;;;;;3.22;1.35;;;;;;;;;;5062768;28;20056;-63
2022/09/09 04:14:18;;;;;;;1.40;0.70;;;;;;;;;;5052816;28;20061;-62
2022/09/09 04:16:45;;;;;;;1.40;0.60;;;;;;;;;;5044261;28;20061;-63
2022/09/09 04:19:14;;;;;;;1.10;0.68;;;;;;;;;;5066352;28;20072;-66
2022/09/09 04:21:41;;;;;;;1.25;0.68;;;;;;;;;;5069052;28;20132;-62
2022/09/09 04:24:08;;;;;;;0.80;0.70;;;;;;;;;;5047718;28;20045;-64
2022/09/09 04:26:36;;;;;;;3.72;1.48;;;;;;;;;;5047745;28;20053;-64
2022/09/09 04:29:03;;;;;;;2.15;0.75;;;;;;;;;;5042736;28;20049;-63
2022/09/09 04:31:29;;;;;;;3.85;0.88;;;;;;;;;;5046013;28;20052;-66
2022/09/09 04:33:56;;;;;;;2.35;1.13;;;;;;;;;;5055643;28;20090;-70
2022/09/09 04:36:24;;;;;;;7.55;1.02;;;;;;;;;;5066411;28;20055;-69
2022/09/09 04:38:51;;;;;;;1.15;0.60;;;;;;;;;;5052323;28;20049;-62
2022/09/09 04:41:17;;;;;;;1.92;0.82;;;;;;;;;;5046381;28;20053;-65
2022/09/09 04:43:44;;;;;;;2.35;0.80;;;;;;;;;;5051957;28;20049;-69
2022/09/09 04:46:11;;;;;;;1.77;0.75;;;;;;;;;;5068241;28;20059;-69
2022/09/09 04:48:37;;;;;;;4.50;0.90;;;;;;;;;;5062716;28;20048;-70
2022/09/09 04:51:05;;;;;;;4.63;0.80;;;;;;;;;;5065711;28;20049;-70
2022/09/09 04:53:34;;;;;;;5.10;1.90;;;;;;;;;;5062162;28;20102;-70
2022/09/09 04:56:05;;;;;;;4.57;1.05;;;;;;;;;;5065868;28;20052;-70
2022/09/09 04:58:31;;;;;;;4.90;1.33;;;;;;;;;;5058284;28;20052;-70
2022/09/09 05:01:03;;;;;;;4.47;1.00;;;;;;;;;;5067277;28;20143;-56
2022/09/09 05:03:30;;;;;;;0.90;0.68;;;;;;;;;;5065406;28;20109;-67
2022/09/09 05:06:03;;;;;;;1.10;0.90;;;;;;;;;;5061286;28;20088;-67
2022/09/09 05:08:30;;;;;;;3.20;0.82;;;;;;;;;;5062343;28;20138;-70
2022/09/09 05:10:59;;;;;;;5.93;1.20;;;;;;;;;;5060674;28;20052;-68
2022/09/09 05:13:26;;;;;;;2.13;1.00;;;;;;;;;;5065412;28;20055;-62
2022/09/09 05:15:53;;;;;;;2.45;0.70;;;;;;;;;;5061754;28;20585;-69
2022/09/09 05:18:21;;;;;;;6.32;1.38;;;;;;;;;;5065541;28;20044;-70
2022/09/09 05:20:48;;;;;;;2.60;0.80;;;;;;;;;;5061070;28;20053;-68
2022/09/09 05:23:15;;;;;;;4.13;0.90;;;;;;;;;;5065689;28;20048;-70
2022/09/09 05:25:42;;;;;;;1.23;0.70;;;;;;;;;;5060886;28;20071;-71
2022/09/09 05:28:11;;;;;;;1.05;0.70;;;;;;;;;;5061661;28;20053;-64
2022/09/09 05:30:38;;;;;;;0.88;0.65;;;;;;;;;;5065166;28;20053;-65
2022/09/09 05:33:05;;;;;;;2.20;0.70;;;;;;;;;;5069909;28;20135;-70
2022/09/09 05:35:33;;;;;;;4.87;1.20;;;;;;;;;;5064255;28;20072;-67
2022/09/09 05:38:01;;;;;;;3.25;1.13;;;;;;;;;;5069264;28;20110;-64
2022/09/09 05:40:28;;;;;;;1.23;0.75;;;;;;;;;;5052181;28;20048;-71
2022/09/09 05:42:54;;;;;;;1.95;1.08;;;;;;;;;;5070455;28;20055;-70
2022/09/09 05:45:22;;;;;;;1.83;0.85;;;;;;;;;;5068135;28;20040;-71
2022/09/09 05:47:53;;;;;;;2.17;1.08;;;;;;;;;;5069056;28;20074;-70
2022/09/09 05:50:19;;;;;;;2.05;0.77;;;;;;;;;;5071507;28;20089;-71
2022/09/09 05:52:47;;;;;;;2.97;1.13;;;;;;;;;;5077549;28;20068;-64
2022/09/09 05:55:15;;;;;;;1.13;0.68;;;;;;;;;;5068569;28;20127;-69
2022/09/09 05:57:42;;;;;;;3.30;1.27;;;;;;;;;;5064812;28;20117;-71
2022/09/09 06:00:09;;;;;;;0.45;0.43;;;;;;;;;;5070037;28;20055;-70
2022/09/09 06:02:38;;;;;;;4.03;1.52;;;;;;;;;;5069136;28;20075;-67
2022/09/09 06:05:08;;;;;;;0.93;0.60;;;;;;;;;;5075770;28;20070;-71
2022/09/09 06:07:36;;;;;;;5.55;1.45;;;;;;;;;;5070795;28;20059;-63
2022/09/09 06:10:02;;;;;;;2.63;0.80;;;;;;;;;;5075150;28;20067;-66
2022/09/09 06:12:29;;;;;;;2.33;0.70;;;;;;;;;;5071533;28;20048;-67
2022/09/09 06:14:56;;;;;;;5.68;1.33;;;;;;;;;;5055697;28;20053;-68
2022/09/09 06:17:25;;;;;;;8.43;1.23;;;;;;;;;;5052655;28;20048;-69
2022/09/09 06:19:52;;;;;;;;;;;;;;;;;;5055988;28;20056;-71
2022/09/09 06:22:20;;;;;;;6.68;1.65;;;;;;;;;;5053380;28;19920;-68
2022/09/09 06:24:47;;;;;;;2.90;0.82;;;;;;;;;;5054920;28;20052;-71
2022/09/09 06:27:16;;;;;;;6.45;1.25;;;;;;;;;;5055261;28;20044;-71
2022/09/09 06:29:43;;;;;;;2.33;0.93;;;;;;;;;;5075016;28;20127;-69
2022/09/09 06:32:09;;;;;;;3.13;1.13;;;;;;;;;;5069690;28;20102;-72
2022/09/09 06:34:36;;;;;;;1.98;0.98;;;;;;;;;;5055231;28;20052;-72
2022/09/09 06:37:06;;;;;;;5.28;0.98;;;;;;;;;;5054542;28;20060;-69
2022/09/09 06:39:34;;;;;;;5.15;1.08;;;;;;;;;;5070551;28;20058;-67
2022/09/09 06:42:00;;;;;;;3.80;1.17;;;;;;;;;;5074223;28;20048;-65
2022/09/09 06:44:27;;;;;;;4.70;1.08;;;;;;;;;;5067949;28;20053;-69
2022/09/09 06:46:55;;;;;;;4.32;1.23;;;;;;;;;;5071366;28;20109;-71
2022/09/09 06:49:21;;;;;;;6.47;1.20;;;;;;;;;;5070265;28;20052;-62
2022/09/09 06:51:49;;;;;;;3.20;1.20;;;;;;;;;;5074658;28;20059;-68
2022/09/09 06:54:15;;;;;;;7.20;1.25;;;;;;;;;;5079097;28;20044;-66
2022/09/09 06:56:46;;;;;;;7.60;1.40;;;;;;;;;;5054614;28;20036;-72
2022/09/09 06:59:13;;;;;;;8.98;2.13;;;;;;;;;;5061826;28;20047;-72
2022/09/09 07:01:41;;;;;;;4.15;1.15;;;;;;;;;;5074913;28;20048;-72
2022/09/09 07:04:08;;;;;;;4.30;1.25;;;;;;;;;;5063557;28;20048;-73
2022/09/09 07:06:38;;;;;;;8.02;1.67;;;;;;;;;;5054612;28;20123;-73
2022/09/09 07:09:05;;;;;;;3.55;1.13;;;;;;;;;;5055634;28;20047;-73
2022/09/09 07:11:33;;;;;;;7.90;2.10;;;;;;;;;;5073253;28;20105;-72
2022/09/09 07:14:02;;;;;;;3.37;1.20;;;;;;;;;;5070193;28;20043;-68
2022/09/09 07:16:29;;;;;;;7.25;1.15;;;;;;;;;;5073968;28;20052;-73
2022/09/09 07:18:57;;;;;;;4.47;1.25;;;;;;;;;;5070649;28;20044;-68
2022/09/09 07:21:26;;;;;;;5.13;1.35;;;;;;;;;;5074758;28;20066;-71
2022/09/09 07:23:53;;;;;;;3.78;1.25;;;;;;;;;;5062159;28;20052;-73
2022/09/09 07:26:22;;;;;;;2.35;1.17;;;;;;;;;;5070135;28;20048;-66
2022/09/09 07:28:50;;;;;;;6.43;1.83;;;;;;;;;;5073810;28;20086;-73
2022/09/09 07:31:20;;;;;;;6.25;2.00;;;;;;;;;;5069753;28;20047;-63
2022/09/09 07:33:47;;;;;;;5.35;1.67;;;;;;;;;;5074127;28;20155;-67
2022/09/09 07:36:34;;;;;;;4.65;1.30;;;;;;;;;;5067055;28;20052;-60
2022/09/09 07:39:01;;;;;;;2.72;1.13;;;;;;;;;;5052705;28;20055;-58
2022/09/09 07:41:30;;;;;;;4.00;1.13;;;;;;;;;;5050081;28;20060;-60
2022/09/09 07:43:58;;;;;;;6.22;1.45;;;;;;;;;;5053409;28;20051;-67
2022/09/09 07:46:34;;;;;;;7.50;1.52;;;;;;;;;;5059425;28;20048;-66
2022/09/09 07:49:02;;;;;;;7.75;1.30;;;;;;;;;;5069704;28;20098;-68
2022/09/09 07:51:30;;;;;;;6.07;1.20;;;;;;;;;;5057136;28;20048;-66
2022/09/09 07:53:58;;;;;;;3.53;1.08;;;;;;;;;;5058846;28;20067;-69
2022/09/09 07:56:40;;;;;;;3.38;1.30;;;;;;;;;;5061272;28;20059;-63
2022/09/09 07:59:07;;;;;;;3.20;1.05;;;;;;;;;;5053450;28;20539;-61
2022/09/09 08:01:38;;;;;;;7.72;1.45;;;;;;;;;;5054356;28;20048;-61
2022/09/09 08:04:06;;;;;;;4.68;1.20;;;;;;;;;;5067157;28;20145;-67
2022/09/09 08:06:38;;;;;;;1.85;0.85;;;;;;;;;;5066564;28;20070;-63
2022/09/09 08:09:05;;;;;;;15.85;1.70;;;;;;;;;;5069329;28;20044;-65
2022/09/09 08:11:32;;;;;;;9.55;1.23;;;;;;;;;;5060684;28;20052;-61
2022/09/09 08:13:59;;;;;;;5.20;1.05;;;;;;;;;;5058451;28;20048;-68
2022/09/09 08:16:50;;;;;;;8.75;1.60;;;;;;;;;;5050518;28;20571;-61
2022/09/09 08:19:18;;;;;;;4.45;1.30;;;;;;;;;;5016036;28;20312;-60
2022/09/09 08:21:45;;;;;;;4.90;1.20;;;;;;;;;;5066086;28;20101;-64
2022/09/09 08:24:13;;;;;;;6.55;1.35;;;;;;;;;;5069329;28;20048;-69
2022/09/09 08:26:45;;;;;;;6.43;1.20;;;;;;;;;;5063182;28;20378;-70
2022/09/09 08:29:13;;;;;;;6.63;1.40;;;;;;;;;;5048259;28;20137;-65
2022/09/09 08:31:42;;;;;;;4.95;1.33;;;;;;;;;;5046248;28;20055;-67
2022/09/09 08:34:09;;;;;;;3.00;1.00;;;;;;;;;;5068777;28;20075;-69
2022/09/09 08:36:38;;;;;;;4.18;1.48;;;;;;;;;;5069651;28;20044;-62
2022/09/09 08:39:06;;;;;;;7.80;1.73;;;;;;;;;;5065849;28;20100;-65
2022/09/09 08:41:42;;;;;;;6.55;1.10;;;;;;;;;;5069739;28;20044;-66
2022/09/09 08:44:11;;;;;;;7.78;1.40;;;;;;;;;;5063792;28;20055;-68
2022/09/09 08:46:43;;;;;;;3.22;0.88;;;;;;;;;;5069484;28;20102;-58
2022/09/09 08:49:15;;;;;;;7.40;1.50;;;;;;;;;;5050064;28;20044;-63
2022/09/09 08:51:43;;;;;;;8.98;1.05;;;;;;;;;;5049571;28;20057;-68
2022/09/09 08:54:10;;;;;;;5.38;0.95;;;;;;;;;;5051589;28;20049;-62
2022/09/09 08:56:38;;;;;;;2.22;0.82;;;;;;;;;;5049613;28;20061;-67
2022/09/09 08:59:05;;;;;;;5.88;1.20;;;;;;;;;;5058555;28;20052;-54
2022/09/09 09:01:43;;;;;;;4.25;1.10;;;;;;;;;;5069835;28;20113;-68
2022/09/09 09:04:16;;;;;;;12.97;1.50;;;;;;;;;;5065818;28;20114;-59
2022/09/09 09:06:49;;;;;;;4.00;1.10;;;;;;;;;;5036749;28;20115;-59
2022/09/09 09:09:19;;;;;;;8.52;1.25;;;;;;;;;;5032660;28;20056;-70
2022/09/09 09:11:48;;;;;;;5.45;1.10;;;;;;;;;;5037221;28;20113;-68
2022/09/09 09:14:18;;;;;;;10.77;1.20;;;;;;;;;;5032703;28;20055;-72
2022/09/09 09:16:49;;;;;;;5.07;1.10;;;;;;;;;;5036914;28;20044;-71
2022/09/09 09:19:17;;;;;;;3.28;1.33;;;;;;;;;;5025957;28;20041;-68
2022/09/09 09:21:45;;;;;;;3.88;0.93;;;;;;;;;;5016533;28;20072;-63
2022/09/09 09:24:19;;;;;;;4.13;0.93;;;;;;;;;;5016956;28;20052;-67
2022/09/09 09:26:49;;;;;;;2.95;0.98;;;;;;;;;;5037142;28;20081;-70
2022/09/09 09:29:16;;;;;;;3.83;1.00;;;;;;;;;;5033267;28;20148;-69
2022/09/09 09:31:45;;;;;;;4.57;0.85;;;;;;;;;;5036721;28;20049;-58
2022/09/09 09:34:12;;;;;;;6.25;1.42;;;;;;;;;;5032398;28;20144;-71
2022/09/09 09:36:42;;;;;;;4.80;0.98;;;;;;;;;;5035871;28;20053;-69
2022/09/09 09:39:09;;;;;;;5.05;1.55;;;;;;;;;;5035849;28;20052;-66
2022/09/09 09:41:39;;;;;;;2.88;0.90;;;;;;;;;;5032749;28;20109;-60
2022/09/09 09:44:07;;;;;;;2.63;0.98;;;;;;;;;;5036387;28;20056;-65
2022/09/09 09:46:34;;;;;;;5.47;0.90;;;;;;;;;;5032933;28;20076;-69
2022/09/09 09:49:01;;;;;;;3.70;1.00;;;;;;;;;;5052720;28;20049;-68
2022/09/09 09:51:29;;;;;;;9.93;1.40;;;;;;;;;;5032066;28;20075;-71
2022/09/09 09:54:05;;;;;;;5.30;0.90;;;;;;;;;;5029884;28;20054;-71
2022/09/09 09:56:36;;;;;;;5.15;1.10;;;;;;;;;;5025895;28;20141;-72
2022/09/09 09:59:05;;;;;;;4.05;0.90;;;;;;;;;;5034357;28;20060;-68
2022/09/09 10:01:39;;;;;;;5.38;1.15;;;;;;;;;;5028852;28;20040;-72
2022/09/09 10:04:15;;;;;;;4.35;0.90;;;;;;;;;;5036917;28;20049;-71
2022/09/09 10:06:45;;;;;;;4.68;1.10;;;;;;;;;;5049457;28;20064;-63
2022/09/09 10:09:21;;;;;;;6.50;1.05;;;;;;;;;;5035872;28;20060;-71
2022/09/09 10:11:53;;;;;;;5.32;0.80;;;;;;;;;;5041989;28;20052;-58
2022/09/09 10:14:22;;;;;;;4.55;0.85;;;;;;;;;;5054828;28;20052;-72
2022/09/09 10:16:59;;;;;;;4.80;1.25;;;;;;;;;;5050096;28;20127;-72
2022/09/09 10:19:30;;;;;;;3.20;0.98;;;;;;;;;;5054745;28;20052;-58
2022/09/09 10:22:00;;;;;;;2.92;0.82;;;;;;;;;;5050488;28;20048;-59
2022/09/09 10:24:37;;;;;;;6.28;1.10;;;;;;;;;;5055356;28;20055;-64
2022/09/09 10:27:06;;;;;;;3.58;0.80;;;;;;;;;;5044349;28;20045;-72
2022/09/09 10:29:46;;;;;;;10.85;1.10;;;;;;;;;;5035079;28;20053;-72
2022/09/09 10:32:22;;;;;;;3.70;0.80;;;;;;;;;;5025809;28;20050;-72
2022/09/09 10:34:55;;;;;;;4.28;1.08;;;;;;;;;;5015702;28;20065;-72
2022/09/09 10:37:28;;;;;;;3.75;0.82;;;;;;;;;;5012418;28;20049;-73
2022/09/09 10:40:00;;;;;;;5.25;0.80;;;;;;;;;;5014527;28;20121;-71
2022/09/09 10:42:29;;;;;;;4.65;1.10;;;;;;;;;;5017407;28;20056;-63
2022/09/09 10:45:04;;;;;;;4.45;1.13;;;;;;;;;;5050612;28;20045;-63
2022/09/09 10:47:42;;;;;;;5.38;0.95;;;;;;;;;;5053990;28;20040;-70
2022/09/09 10:50:23;;;;;;;5.45;1.08;;;;;;;;;;5050119;28;20049;-72
2022/09/09 10:52:53;;;;;;;2.97;0.90;;;;;;;;;;5019459;28;20064;-65
2022/09/09 10:55:21;;;;;;;7.70;1.20;;;;;;;;;;5031555;28;20049;-69
2022/09/09 10:57:51;;;;;;;3.33;0.88;;;;;;;;;;5028871;28;20099;-69
2022/09/09 11:00:20;;;;;;;10.02;1.63;;;;;;;;;;5034614;28;20087;-71
2022/09/09 11:02:48;;;;;;;7.38;1.65;;;;;;;;;;5033122;28;20575;-72
2022/09/09 11:05:18;;;;;;;6.20;1.23;;;;;;;;;;5054155;28;20047;-69
2022/09/09 11:07:55;;;;;;;7.57;1.70;;;;;;;;;;5050716;28;20044;-68
2022/09/09 11:10:25;;;;;;;10.35;1.40;;;;;;;;;;5021658;28;20058;-64
2022/09/09 11:12:54;;;;;;;5.10;1.10;;;;;;;;;;5027821;28;20048;-69
2022/09/09 11:15:25;;;;;;;5.20;1.63;;;;;;;;;;5052861;28;20079;-73
2022/09/09 11:17:54;;;;;;;5.03;1.00;;;;;;;;;;5054238;28;20048;-71
2022/09/09 11:20:21;;;;;;;5.40;1.20;;;;;;;;;;5050899;28;20048;-66
2022/09/09 11:22:49;;;;;;;5.78;1.13;;;;;;;;;;5053890;28;20052;-70
2022/09/09 11:25:17;;;;;;;13.32;1.13;;;;;;;;;;5052473;28;20052;-67
2022/09/09 11:27:58;;;;;;;4.77;1.30;;;;;;;;;;5053676;28;20048;-66
2022/09/09 11:30:32;;;;;;;7.60;1.17;;;;;;;;;;5046999;28;20055;-65
2022/09/09 11:33:21;;;;;;;2.95;0.93;;;;;;;;;;5053675;28;20135;-68
2022/09/09 11:36:02;;;;;;;3.08;0.80;;;;;;;;;;5047749;28;20045;-70
2022/09/09 11:38:30;;;;;;;3.58;0.90;;;;;;;;;;5053417;28;20052;-62
2022/09/09 11:40:59;;;;;;;5.97;0.90;;;;;;;;;;5049915;28;20056;-60
2022/09/09 11:43:28;;;;;;;6.53;1.23;;;;;;;;;;5053644;28;20294;-67
2022/09/09 11:46:07;;;;;;;5.85;0.93;;;;;;;;;;5053195;28;20057;-70
2022/09/09 11:48:36;;;;;;;3.15;0.85;;;;;;;;;;5033617;28;20056;-71
2022/09/09 11:51:05;;;;;;;6.75;1.20;;;;;;;;;;5039541;28;20048;-62
2022/09/09 11:53:32;;;;;;;3.92;0.88;;;;;;;;;;5036369;28;20052;-68
2022/09/09 11:56:03;;;;;;;7.03;1.10;;;;;;;;;;5050203;28;20055;-71
2022/09/09 11:58:32;;;;;;;2.67;0.98;;;;;;;;;;5052433;28;20052;-65
2022/09/09 12:00:59;;;;;;;2.88;0.90;;;;;;;;;;5039732;28;20055;-71
2022/09/09 12:03:43;;;;;;;2.58;0.90;;;;;;;;;;5053521;28;20052;-71
2022/09/09 12:06:22;;;;;;;4.55;1.23;;;;;;;;;;5065469;28;20050;-69
2022/09/09 12:08:52;;;;;;;1.90;0.82;;;;;;;;;;5080254;28;20052;-71
2022/09/09 12:11:26;;;;;;;6.97;1.25;;;;;;;;;;5060442;28;20056;-70
2022/09/09 12:13:53;;;;;;;3.15;0.88;;;;;;;;;;5051867;28;20053;-70
2022/09/09 12:16:29;;;;;;;2.67;1.02;;;;;;;;;;5051212;28;20056;-65
2022/09/09 12:19:05;;;;;;;2.45;0.77;;;;;;;;;;5053461;28;20052;-70
2022/09/09 12:21:36;;;;;;;3.20;0.90;;;;;;;;;;5058002;28;20052;-68
2022/09/09 12:24:05;;;;;;;4.80;1.00;;;;;;;;;;5071503;28;20071;-71
2022/09/09 12:26:54;;;;;;;3.10;0.90;;;;;;;;;;5069123;28;20040;-71
2022/09/09 12:29:25;;;;;;;5.88;1.20;;;;;;;;;;5073268;28;20058;-68
2022/09/09 12:31:56;;;;;;;2.88;0.90;;;;;;;;;;5069646;28;20067;-61
2022/09/09 12:34:30;;;;;;;4.40;0.68;;;;;;;;;;5091596;28;20105;-69
2022/09/09 12:36:59;;;;;;;3.60;0.85;;;;;;;;;;5069739;28;20101;-64
2022/09/09 12:39:29;;;;;;;9.93;1.30;;;;;;;;;;5073158;28;20052;-70
2022/09/09 12:41:57;;;;;;;4.40;1.00;;;;;;;;;;5069309;28;20040;-68
2022/09/09 12:44:24;;;;;;;6.20;1.20;;;;;;;;;;5072652;28;20052;-71
2022/09/09 12:47:03;;;;;;;6.00;1.10;;;;;;;;;;5068470;28;20093;-71
2022/09/09 12:49:35;;;;;;;4.45;1.30;;;;;;;;;;5071821;28;20062;-60
2022/09/09 12:52:03;;;;;;;3.30;1.10;;;;;;;;;;5068543;28;20052;-71
2022/09/09 12:54:29;;;;;;;3.77;1.20;;;;;;;;;;5062015;28;20143;-70
2022/09/09 12:57:04;;;;;;;3.40;1.15;;;;;;;;;;5051665;28;20113;-56
2022/09/09 12:59:36;;;;;;;3.78;1.02;;;;;;;;;;5032683;28;20049;-65
2022/09/09 13:02:03;;;;;;;2.78;1.15;;;;;;;;;;5044323;28;20053;-70
2022/09/09 13:04:31;;;;;;;10.73;1.30;;;;;;;;;;5048970;28;20060;-65
2022/09/09 13:07:06;;;;;;;8.43;1.10;;;;;;;;;;5067532;28;20147;-62
2022/09/09 13:09:33;;;;;;;5.15;1.60;;;;;;;;;;5052292;28;20041;-67
2022/09/09 13:12:00;;;;;;;4.22;1.20;;;;;;;;;;5052184;28;20052;-68
2022/09/09 13:14:29;;;;;;;4.28;1.20;;;;;;;;;;5065779;28;20048;-62
2022/09/09 13:16:57;;;;;;;4.30;1.20;;;;;;;;;;5072357;28;20052;-61
2022/09/09 13:19:28;;;;;;;4.38;1.08;;;;;;;;;;5065678;28;20071;-67
2022/09/09 13:21:57;;;;;;;5.22;1.05;;;;;;;;;;5069130;28;20083;-68
2022/09/09 13:24:23;;;;;;;;;;;;;;;;;;5068846;28;20069;-58
2022/09/09 13:26:54;;;;;;;3.88;1.00;;;;;;;;;;5071874;28;19919;-67
2022/09/09 13:29:20;;;;;;;4.38;1.08;;;;;;;;;;5064583;28;20102;-60
2022/09/09 13:31:47;;;;;;;3.22;1.13;;;;;;;;;;5051835;28;20045;-65
2022/09/09 13:34:15;;;;;;;7.50;1.00;;;;;;;;;;5055558;28;20056;-65
2022/09/09 13:36:42;;;;;;;4.35;1.05;;;;;;;;;;5071092;28;20070;-67
2022/09/09 13:39:16;;;;;;;1.73;0.90;;;;;;;;;;5064681;28;20059;-63
2022/09/09 13:41:44;;;;;;;1.60;0.70;;;;;;;;;;5068988;28;20049;-70
2022/09/09 13:44:18;;;;;;;3.88;1.15;;;;;;;;;;5052475;28;20059;-61
2022/09/09 13:46:45;;;;;;;3.20;1.20;;;;;;;;;;5070799;28;20070;-71
2022/09/09 13:49:22;;;;;;;4.47;1.65;;;;;;;;;;5068159;28;20056;-69
2022/09/09 13:51:50;;;;;;;3.22;0.90;;;;;;;;;;5075167;28;20051;-63
2022/09/09 13:54:19;;;;;;;4.72;1.15;;;;;;;;;;5071307;28;20063;-63
2022/09/09 13:56:49;;;;;;;5.07;1.10;;;;;;;;;;5075999;28;20056;-70
2022/09/09 13:59:18;;;;;;;4.35;1.42;;;;;;;;;;5075128;28;20036;-68
2022/09/09 14:01:44;;;;;;;4.35;0.98;;;;;;;;;;5070141;28;20040;-68
2022/09/09 14:04:11;;;;;;;4.63;1.10;;;;;;;;;;5072419;28;20056;-70
2022/09/09 14:06:40;;;;;;;2.75;0.88;;;;;;;;;;5086458;28;20070;-64
2022/09/09 14:09:07;;;;;;;4.55;1.17;;;;;;;;;;5092586;28;20082;-61
2022/09/09 14:11:35;;;;;;;3.40;0.90;;;;;;;;;;5074640;28;20102;-71
2022/09/09 14:14:02;;;;;;;6.10;1.00;;;;;;;;;;5071838;28;20125;-67
2022/09/09 14:16:29;;;;;;;5.72;0.90;;;;;;;;;;5067592;28;20110;-63
2022/09/09 14:18:57;;;;;;;3.78;0.90;;;;;;;;;;5071967;28;20049;-59
2022/09/09 14:21:24;;;;;;;5.75;1.10;;;;;;;;;;5071780;28;20048;-59
2022/09/09 14:23:50;;;;;;;4.22;1.05;;;;;;;;;;5075546;28;20048;-62
2022/09/09 14:26:20;;;;;;;5.00;1.30;;;;;;;;;;5068325;28;20117;-69
2022/09/09 14:28:51;;;;;;;3.30;1.00;;;;;;;;;;5072236;28;20098;-70
2022/09/09 14:31:18;;;;;;;6.55;1.05;;;;;;;;;;5072777;28;20044;-70
2022/09/09 14:33:46;;;;;;;3.38;0.98;;;;;;;;;;5074745;28;20044;-66
2022/09/09 14:36:17;;;;;;;4.15;1.27;;;;;;;;;;5071685;28;20044;-62
2022/09/09 14:38:43;;;;;;;4.50;1.25;;;;;;;;;;5075126;28;20134;-66
2022/09/09 14:41:11;;;;;;;2.53;1.02;;;;;;;;;;5071344;28;20048;-69
2022/09/09 14:43:38;;;;;;;1.77;0.85;;;;;;;;;;5073811;28;20044;-70
2022/09/09 14:46:10;;;;;;;4.25;1.13;;;;;;;;;;5071740;28;20110;-69
2022/09/09 14:48:40;;;;;;;4.90;1.38;;;;;;;;;;5073589;28;20056;-70
2022/09/09 14:51:08;;;;;;;3.13;0.93;;;;;;;;;;5074775;28;20135;-67
2022/09/09 14:53:34;;;;;;;2.90;0.90;;;;;;;;;;5071449;28;20055;-65
2022/09/09 14:56:06;;;;;;;2.53;0.75;;;;;;;;;;5074831;28;20298;-67